createdAt,value
2022-12-04T00:01:20.324Z,49.50
2022-12-04T00:03:49.999Z,42.87
2022-12-04T00:06:18.926Z,44.97
2022-12-04T00:08:47.586Z,52.67
2022-12-04T00:11:17.730Z,42.60
2022-12-04T00:13:45.141Z,50.40
2022-12-04T00:16:18.273Z,49.10
2022-12-04T00:18:45.190Z,55.07
2022-12-04T00:21:13.812Z,51.60
2022-12-04T00:23:42.072Z,46.27
2022-12-04T00:26:14.514Z,47.13
2022-12-04T00:28:42.140Z,52.83
2022-12-04T00:31:12.187Z,51.93
2022-12-04T00:33:39.683Z,51.07
2022-12-04T00:36:10.003Z,55.90
2022-12-04T00:38:37.915Z,43.10
2022-12-04T00:41:05.151Z,53.37
2022-12-04T00:43:32.222Z,49.23
2022-12-04T00:45:59.479Z,52.13
2022-12-04T00:48:26.387Z,49.67
2022-12-04T00:50:54.138Z,44.93
2022-12-04T00:53:21.687Z,63.87
2022-12-04T00:55:48.224Z,46.03
2022-12-04T00:58:14.763Z,58.93
2022-12-04T01:00:42.504Z,46.87
2022-12-04T01:03:09.784Z,52.57
2022-12-04T01:05:41.090Z,52.20
2022-12-04T01:08:08.601Z,55.50
2022-12-04T01:10:38.760Z,53.63
2022-12-04T01:13:05.682Z,55.00
2022-12-04T01:15:32.418Z,49.27
2022-12-04T01:17:58.983Z,48.80
2022-12-04T01:20:25.586Z,47.93
2022-12-04T01:22:52.126Z,51.20
2022-12-04T01:25:18.758Z,51.43
2022-12-04T01:27:45.274Z,50.63
2022-12-04T01:30:12.971Z,47.57
2022-12-04T01:32:39.481Z,56.53
2022-12-04T01:35:06.580Z,48.00
2022-12-04T01:37:33.465Z,51.53
2022-12-04T01:40:00.132Z,47.30
2022-12-04T01:42:27.790Z,51.13
2022-12-04T01:45:32.154Z,53.30
2022-12-04T01:48:10.883Z,51.87
2022-12-04T01:50:37.782Z,54.90
2022-12-04T01:53:04.761Z,56.90
2022-12-04T01:55:31.727Z,59.10
2022-12-04T01:57:59.052Z,61.90
2022-12-04T02:00:25.667Z,58.30
2022-12-04T02:02:52.373Z,53.90
2022-12-04T02:05:23.112Z,59.03
2022-12-04T02:07:52.437Z,49.30
2022-12-04T02:10:24.519Z,56.77
2022-12-04T02:12:58.267Z,55.67
2022-12-04T02:15:34.924Z,58.73
2022-12-04T02:18:14.609Z,49.20
2022-12-04T02:21:16.764Z,61.77
2022-12-04T02:23:58.501Z,54.57
2022-12-04T02:26:49.085Z,56.13
2022-12-04T02:29:21.720Z,50.93
2022-12-04T02:32:00.814Z,54.00
2022-12-04T02:34:41.648Z,49.57
2022-12-04T02:37:34.473Z,53.07
2022-12-04T02:40:08.269Z,46.93
2022-12-04T02:42:41.758Z,49.17
2022-12-04T02:45:12.576Z,57.87
2022-12-04T02:47:41.627Z,50.83
2022-12-04T02:50:18.357Z,54.97
2022-12-04T02:53:14.067Z,54.90
2022-12-04T02:55:49.779Z,51.73
2022-12-04T02:58:24.564Z,39.57
2022-12-04T03:00:53.790Z,53.57
2022-12-04T03:03:26.854Z,51.00
2022-12-04T03:06:04.685Z,63.43
2022-12-04T03:08:41.368Z,49.60
2022-12-04T03:11:08.012Z,52.13
2022-12-04T03:13:56.813Z,48.10
2022-12-04T03:16:31.300Z,51.47
2022-12-04T03:19:07.815Z,56.30
2022-12-04T03:21:38.318Z,55.37
2022-12-04T03:24:13.100Z,51.20
2022-12-04T03:26:50.949Z,47.03
2022-12-04T03:29:33.519Z,54.67
2022-12-04T03:32:27.567Z,49.83
2022-12-04T03:35:01.712Z,53.60
2022-12-04T03:37:39.289Z,52.80
2022-12-04T03:40:28.688Z,63.83
2022-12-04T03:43:06.092Z,51.37
2022-12-04T03:45:47.208Z,50.90
2022-12-04T03:48:23.379Z,58.10
2022-12-04T03:50:59.693Z,53.10
2022-12-04T03:53:38.940Z,47.90
2022-12-04T03:56:11.748Z,49.23
2022-12-04T03:58:44.725Z,49.77
2022-12-04T04:01:14.059Z,52.17
2022-12-04T04:03:46.428Z,51.70
2022-12-04T04:06:18.796Z,59.60
2022-12-04T04:08:50.791Z,56.33
2022-12-04T04:11:27.691Z,52.20
2022-12-04T04:14:35.104Z,49.70
2022-12-04T04:17:28.078Z,57.80
2022-12-04T04:20:22.036Z,43.93
2022-12-04T04:23:11.889Z,52.93
2022-12-04T04:25:41.342Z,46.97
2022-12-04T04:28:31.213Z,48.50
2022-12-04T04:31:07.410Z,45.23
2022-12-04T04:33:39.421Z,43.87
2022-12-04T04:36:18.170Z,55.17
2022-12-04T04:39:00.810Z,58.03
2022-12-04T04:41:52.022Z,49.63
2022-12-04T04:44:21.192Z,48.40
2022-12-04T04:46:52.779Z,48.47
2022-12-04T04:49:24.568Z,49.17
2022-12-04T04:51:51.370Z,57.87
2022-12-04T04:54:19.621Z,48.93
2022-12-04T04:56:47.396Z,43.60
2022-12-04T04:59:14.560Z,47.70
2022-12-04T05:01:45.036Z,57.10
2022-12-04T05:04:11.773Z,45.73
2022-12-04T05:06:38.370Z,45.23
2022-12-04T05:09:04.977Z,49.83
2022-12-04T05:11:31.692Z,46.73
2022-12-04T05:13:58.681Z,48.10
2022-12-04T05:16:25.314Z,52.73
2022-12-04T05:19:11.595Z,47.10
2022-12-04T05:21:38.416Z,52.50
2022-12-04T05:24:05.433Z,54.23
2022-12-04T05:26:32.289Z,45.73
2022-12-04T05:28:58.805Z,52.23
2022-12-04T05:31:25.519Z,50.90
2022-12-04T05:33:53.216Z,44.57
2022-12-04T05:36:20.133Z,48.73
2022-12-04T05:38:47.003Z,47.73
2022-12-04T05:41:13.509Z,48.40
2022-12-04T05:43:40.110Z,47.50
2022-12-04T05:46:08.720Z,47.93
2022-12-04T05:48:35.708Z,42.33
2022-12-04T05:51:10.001Z,44.93
2022-12-04T05:53:37.968Z,44.70
2022-12-04T05:56:05.918Z,49.03
2022-12-04T05:58:36.138Z,47.43
2022-12-04T06:01:17.267Z,40.07
2022-12-04T06:03:44.477Z,56.27
2022-12-04T06:06:23.426Z,48.17
2022-12-04T06:08:52.886Z,46.67
2022-12-04T06:11:22.485Z,41.77
2022-12-04T06:13:49.811Z,47.17
2022-12-04T06:16:22.660Z,46.97
2022-12-04T06:18:57.821Z,48.43
2022-12-04T06:21:26.326Z,52.53
2022-12-04T06:23:54.237Z,48.87
2022-12-04T06:26:22.036Z,42.80
2022-12-04T06:28:49.083Z,50.87
2022-12-04T06:31:16.900Z,50.83
2022-12-04T06:33:43.779Z,48.83
2022-12-04T06:36:16.296Z,45.53
2022-12-04T06:38:42.953Z,44.47
2022-12-04T06:41:12.644Z,43.73
2022-12-04T06:43:40.233Z,47.50
2022-12-04T06:46:10.727Z,47.63
2022-12-04T06:48:37.668Z,45.57
2022-12-04T06:51:18.157Z,40.93
2022-12-04T06:53:45.285Z,40.03
2022-12-04T06:56:16.160Z,49.63
2022-12-04T06:58:42.671Z,46.37
2022-12-04T07:01:11.943Z,48.73
2022-12-04T07:03:39.252Z,43.90
2022-12-04T07:06:17.836Z,38.33
2022-12-04T07:08:46.501Z,49.43
2022-12-04T07:11:14.306Z,49.73
2022-12-04T07:13:41.607Z,45.87
2022-12-04T07:16:12.467Z,52.33
2022-12-04T07:18:39.012Z,52.53
2022-12-04T07:21:07.663Z,45.50
2022-12-04T07:23:34.666Z,50.93
2022-12-04T07:26:08.755Z,50.07
2022-12-04T07:28:36.177Z,52.00
2022-12-04T07:31:07.623Z,39.73
2022-12-04T07:33:36.008Z,46.87
2022-12-04T07:36:05.745Z,38.53
2022-12-04T07:38:34.750Z,44.83
2022-12-04T07:41:03.973Z,45.90
2022-12-04T07:43:31.797Z,45.90
2022-12-04T07:45:59.756Z,51.10
2022-12-04T07:48:31.665Z,45.40
2022-12-04T07:51:07.865Z,46.73
2022-12-04T07:53:35.300Z,47.97
2022-12-04T07:56:02.765Z,46.83
2022-12-04T07:58:29.749Z,45.10
2022-12-04T08:01:13.699Z,50.93
2022-12-04T08:03:47.195Z,45.37
2022-12-04T08:06:14.881Z,46.17
2022-12-04T08:08:41.503Z,43.40
2022-12-04T08:11:11.078Z,49.00
2022-12-04T08:13:37.596Z,45.63
2022-12-04T08:16:07.001Z,47.20
2022-12-04T08:18:33.710Z,51.83
2022-12-04T08:21:05.742Z,53.17
2022-12-04T08:23:33.142Z,50.03
2022-12-04T08:26:00.858Z,50.00
2022-12-04T08:28:28.160Z,55.40
2022-12-04T08:30:55.148Z,50.70
2022-12-04T08:33:21.815Z,52.87
2022-12-04T08:35:48.364Z,44.43
2022-12-04T08:38:14.903Z,46.83
2022-12-04T08:40:41.521Z,49.27
2022-12-04T08:43:08.289Z,45.83
2022-12-04T08:45:34.810Z,39.23
2022-12-04T08:48:02.113Z,52.80
2022-12-04T08:50:28.913Z,40.83
2022-12-04T08:52:55.469Z,45.90
2022-12-04T08:55:22.803Z,45.73
2022-12-04T08:57:52.469Z,46.23
2022-12-04T09:00:19.827Z,47.00
2022-12-04T09:02:49.797Z,49.17
2022-12-04T09:05:17.711Z,49.50
2022-12-04T09:07:44.732Z,45.37
2022-12-04T09:10:12.314Z,52.10
2022-12-04T09:12:39.117Z,46.27
2022-12-04T09:15:06.577Z,51.23
2022-12-04T09:17:34.516Z,50.00
2022-12-04T09:20:01.694Z,44.40
2022-12-04T09:22:45.480Z,46.93
2022-12-04T09:25:15.160Z,49.00
2022-12-04T09:27:41.885Z,48.37
2022-12-04T09:30:10.668Z,51.07
2022-12-04T09:32:37.714Z,47.50
2022-12-04T09:35:05.593Z,53.60
2022-12-04T09:37:33.143Z,47.50
2022-12-04T09:39:59.708Z,51.50
2022-12-04T09:42:48.591Z,57.23
2022-12-04T09:45:20.398Z,50.90
2022-12-04T09:47:50.338Z,49.07
2022-12-04T09:50:23.037Z,55.87
2022-12-04T09:53:03.329Z,62.10
2022-12-04T09:55:41.102Z,51.13
2022-12-04T09:58:14.088Z,52.90
2022-12-04T10:00:44.761Z,50.30
2022-12-04T10:03:17.420Z,57.77
2022-12-04T10:06:14.731Z,58.37
2022-12-04T10:08:49.771Z,53.43
2022-12-04T10:11:26.526Z,51.00
2022-12-04T10:14:02.072Z,54.07
2022-12-04T10:16:45.908Z,57.73
2022-12-04T10:19:18.524Z,49.43
2022-12-04T10:22:22.597Z,57.20
2022-12-04T10:24:56.633Z,87.50
2022-12-04T10:27:29.543Z,54.67
2022-12-04T10:30:00.865Z,47.93
2022-12-04T10:32:31.693Z,54.80
2022-12-04T10:35:08.856Z,57.97
2022-12-04T10:37:40.991Z,51.00
2022-12-04T10:40:22.058Z,49.60
2022-12-04T10:43:06.457Z,51.47
2022-12-04T10:45:33.014Z,49.40
2022-12-04T10:48:00.199Z,48.57
2022-12-04T10:50:26.875Z,57.03
2022-12-04T10:52:53.447Z,48.43
2022-12-04T10:55:33.169Z,54.00
2022-12-04T10:57:59.773Z,51.30
2022-12-04T11:00:34.697Z,53.70
2022-12-04T11:03:04.622Z,55.23
2022-12-04T11:05:55.422Z,47.87
2022-12-04T11:08:30.582Z,55.87
2022-12-04T11:11:00.916Z,50.20
2022-12-04T11:13:27.553Z,49.80
2022-12-04T11:15:58.133Z,36.77
2022-12-04T11:18:27.893Z,47.83
2022-12-04T11:20:56.392Z,50.40
2022-12-04T11:23:24.747Z,46.30
2022-12-04T11:25:54.596Z,46.37
2022-12-04T11:28:44.544Z,45.47
2022-12-04T11:31:20.052Z,49.43
2022-12-04T11:33:50.539Z,48.07
2022-12-04T11:36:51.955Z,39.73
2022-12-04T11:39:26.838Z,44.77
2022-12-04T11:42:17.208Z,43.00
2022-12-04T11:45:02.039Z,52.90
2022-12-04T11:47:31.473Z,50.27
2022-12-04T11:50:01.592Z,49.90
2022-12-04T11:52:35.795Z,48.93
2022-12-04T11:55:15.676Z,43.67
2022-12-04T11:58:14.452Z,51.97
2022-12-04T12:00:55.025Z,42.47
2022-12-04T12:03:38.341Z,46.83
2022-12-04T12:06:29.776Z,41.30
2022-12-04T12:09:08.269Z,42.80
2022-12-04T12:11:40.113Z,42.00
2022-12-04T12:14:24.199Z,40.40
2022-12-04T12:17:08.701Z,41.07
2022-12-04T12:20:11.013Z,41.73
2022-12-04T12:23:08.352Z,40.00
2022-12-04T12:26:13.561Z,40.57
2022-12-04T12:29:08.848Z,39.57
2022-12-04T12:31:51.100Z,44.70
2022-12-04T12:34:36.005Z,36.80
2022-12-04T12:37:15.836Z,36.93
2022-12-04T12:39:56.688Z,44.13
2022-12-04T12:42:31.268Z,40.93
2022-12-04T12:45:04.488Z,36.37
2022-12-04T12:47:38.620Z,38.80
2022-12-04T12:50:49.379Z,40.37
2022-12-04T12:53:22.929Z,34.93
2022-12-04T12:56:01.926Z,35.60
2022-12-04T12:58:38.381Z,39.53
2022-12-04T13:01:13.169Z,42.80
2022-12-04T13:04:04.918Z,41.40
2022-12-04T13:07:14.650Z,40.53
2022-12-04T13:09:48.288Z,37.23
2022-12-04T13:12:16.743Z,37.40
2022-12-04T13:14:48.653Z,39.57
2022-12-04T13:17:35.564Z,40.80
2022-12-04T13:20:10.172Z,41.83
2022-12-04T13:23:10.828Z,40.77
2022-12-04T13:25:56.636Z,36.20
2022-12-04T13:28:49.896Z,37.40
2022-12-04T13:32:02.834Z,43.53
2022-12-04T13:34:46.858Z,40.53
2022-12-04T13:37:59.792Z,37.23
2022-12-04T13:40:38.644Z,36.37
2022-12-04T13:43:23.869Z,38.30
2022-12-04T13:45:53.070Z,37.33
2022-12-04T13:48:31.800Z,37.50
2022-12-04T13:51:08.358Z,42.43
2022-12-04T13:53:38.031Z,39.17
2022-12-04T13:56:09.413Z,47.87
2022-12-04T13:58:38.283Z,41.13
2022-12-04T14:01:28.386Z,42.20
2022-12-04T14:03:57.331Z,43.13
2022-12-04T14:06:36.427Z,40.43
2022-12-04T14:09:07.600Z,44.93
2022-12-04T14:11:45.085Z,39.00
2022-12-04T14:14:26.576Z,40.87
2022-12-04T14:16:54.116Z,43.33
2022-12-04T14:19:36.679Z,37.90
2022-12-04T14:22:03.751Z,54.13
2022-12-04T14:24:40.243Z,48.43
2022-12-04T14:27:31.728Z,39.77
2022-12-04T14:29:59.832Z,49.70
2022-12-04T14:32:30.857Z,47.90
2022-12-04T14:34:57.934Z,41.33
2022-12-04T14:37:53.196Z,40.93
2022-12-04T14:40:24.686Z,44.70
2022-12-04T14:42:52.285Z,40.80
2022-12-04T14:45:25.922Z,46.93
2022-12-04T14:47:52.636Z,39.23
2022-12-04T14:50:44.307Z,44.70
2022-12-04T14:53:29.684Z,55.17
2022-12-04T14:56:23.329Z,33.63
2022-12-04T14:58:51.131Z,47.80
2022-12-04T15:01:29.720Z,42.07
2022-12-04T15:04:02.043Z,43.13
2022-12-04T15:06:31.508Z,43.70
2022-12-04T15:09:23.445Z,49.30
2022-12-04T15:12:14.049Z,42.17
2022-12-04T15:14:46.307Z,41.53
2022-12-04T15:17:15.504Z,39.93
2022-12-04T15:19:42.660Z,40.13
2022-12-04T15:22:19.465Z,48.00
2022-12-04T15:24:46.442Z,43.17
2022-12-04T15:27:15.108Z,42.30
2022-12-04T15:29:48.294Z,39.37
2022-12-04T15:32:17.562Z,40.80
2022-12-04T15:34:48.947Z,40.77
2022-12-04T15:37:22.400Z,44.90
2022-12-04T15:39:52.357Z,45.67
2022-12-04T15:42:22.202Z,42.90
2022-12-04T15:44:53.188Z,44.97
2022-12-04T15:47:25.348Z,46.47
2022-12-04T15:49:52.039Z,40.43
2022-12-04T15:52:20.121Z,39.37
2022-12-04T15:54:56.489Z,53.67
2022-12-04T15:57:31.165Z,41.23
2022-12-04T16:00:05.090Z,41.83
2022-12-04T16:02:39.597Z,39.23
2022-12-04T16:05:21.219Z,45.83
2022-12-04T16:07:59.723Z,50.47
2022-12-04T16:10:33.484Z,41.43
2022-12-04T16:13:03.263Z,39.67
2022-12-04T16:15:39.549Z,46.23
2022-12-04T16:18:07.737Z,39.40
2022-12-04T16:20:36.021Z,42.20
2022-12-04T16:23:03.658Z,37.20
2022-12-04T16:25:31.523Z,42.17
2022-12-04T16:27:59.221Z,42.10
2022-12-04T16:30:28.251Z,43.50
2022-12-04T16:32:54.901Z,43.77
2022-12-04T16:35:22.365Z,45.40
2022-12-04T16:37:48.879Z,48.07
2022-12-04T16:40:16.260Z,44.90
2022-12-04T16:42:43.509Z,33.03
2022-12-04T16:45:28.275Z,42.27
2022-12-04T16:47:57.895Z,49.00
2022-12-04T16:50:26.444Z,46.13
2022-12-04T16:52:53.493Z,48.30
2022-12-04T16:55:38.379Z,51.43
2022-12-04T16:58:06.011Z,39.97
2022-12-04T17:00:33.421Z,45.33
2022-12-04T17:03:04.025Z,44.47
2022-12-04T17:05:33.403Z,33.43
2022-12-04T17:08:00.733Z,45.17
2022-12-04T17:10:29.343Z,49.43
2022-12-04T17:12:56.034Z,47.63
2022-12-04T17:15:22.868Z,75.57
2022-12-04T17:17:49.844Z,41.73
2022-12-04T17:20:18.965Z,46.87
2022-12-04T17:22:46.293Z,43.13
2022-12-04T17:25:13.932Z,47.03
2022-12-04T17:27:40.621Z,43.47
2022-12-04T17:30:08.514Z,47.13
2022-12-04T17:32:35.236Z,46.47
2022-12-04T17:35:02.957Z,40.87
2022-12-04T17:37:31.628Z,50.53
2022-12-04T17:39:58.583Z,45.53
2022-12-04T17:42:25.200Z,54.53
2022-12-04T17:44:51.728Z,46.97
2022-12-04T17:47:18.838Z,48.83
2022-12-04T17:49:45.390Z,49.67
2022-12-04T17:52:12.108Z,60.53
2022-12-04T17:54:38.643Z,43.40
2022-12-04T17:57:06.092Z,45.70
2022-12-04T17:59:32.634Z,45.10
2022-12-04T18:01:59.185Z,50.87
2022-12-04T18:04:25.820Z,40.93
2022-12-04T18:06:52.645Z,53.33
2022-12-04T18:09:19.497Z,38.93
2022-12-04T18:11:47.666Z,44.37
2022-12-04T18:14:18.399Z,47.53
2022-12-04T18:16:51.925Z,49.13
2022-12-04T18:19:21.246Z,44.47
2022-12-04T18:21:48.151Z,46.53
2022-12-04T18:24:15.272Z,51.27
2022-12-04T18:26:45.955Z,48.90
2022-12-04T18:29:15.207Z,46.47
2022-12-04T18:31:42.655Z,46.47
2022-12-04T18:34:09.589Z,45.67
2022-12-04T18:36:38.813Z,51.97
2022-12-04T18:39:08.888Z,37.43
2022-12-04T18:41:35.482Z,58.93
2022-12-04T18:44:03.166Z,49.67
2022-12-04T18:46:30.302Z,48.37
2022-12-04T18:49:01.368Z,50.17
2022-12-04T18:51:47.003Z,47.13
2022-12-04T18:54:18.659Z,47.53
2022-12-04T18:56:46.064Z,52.47
2022-12-04T18:59:23.906Z,45.30
2022-12-04T19:01:51.705Z,47.27
2022-12-04T19:04:20.302Z,44.73
2022-12-04T19:06:52.015Z,55.60
2022-12-04T19:09:47.341Z,48.70
2022-12-04T19:12:12.870Z,41.10
2022-12-04T19:14:39.836Z,44.70
2022-12-04T19:17:06.921Z,45.43
2022-12-04T19:19:34.347Z,53.10
2022-12-04T19:22:02.126Z,47.70
2022-12-04T19:24:28.842Z,46.60
2022-12-04T19:26:55.640Z,45.93
2022-12-04T19:32:11.491Z,44.27
2022-12-04T19:34:38.199Z,40.83
2022-12-04T19:37:04.832Z,45.57
2022-12-04T19:39:31.456Z,42.50
2022-12-04T19:41:58.359Z,42.30
2022-12-04T19:44:48.000Z,42.17
2022-12-04T19:47:12.040Z,52.37
2022-12-04T19:49:38.579Z,50.63
2022-12-04T19:52:06.529Z,48.83
2022-12-04T19:54:33.049Z,44.60
2022-12-04T19:56:59.912Z,50.70
2022-12-04T19:59:29.447Z,44.67
2022-12-04T20:01:58.500Z,40.63
2022-12-04T20:04:25.392Z,39.57
2022-12-04T20:06:53.064Z,39.23
2022-12-04T20:09:21.847Z,38.53
2022-12-04T20:11:49.063Z,39.80
2022-12-04T20:14:15.841Z,36.43
2022-12-04T20:16:42.960Z,41.40
2022-12-04T20:19:14.260Z,39.07
2022-12-04T20:21:41.253Z,36.80
2022-12-04T20:24:08.193Z,40.63
2022-12-04T20:26:39.973Z,38.10
2022-12-04T20:29:10.121Z,35.30
2022-12-04T20:31:38.899Z,34.07
2022-12-04T20:34:12.972Z,32.40
2022-12-04T20:36:42.959Z,42.03
2022-12-04T20:39:11.506Z,29.93
2022-12-04T20:41:38.757Z,35.40
2022-12-04T20:44:07.612Z,31.57
2022-12-04T20:46:37.195Z,31.87
2022-12-04T20:49:06.792Z,36.10
2022-12-04T20:51:37.933Z,34.30
2022-12-04T20:54:05.582Z,33.13
2022-12-04T20:56:35.851Z,29.03
2022-12-04T20:59:05.836Z,37.53
2022-12-04T21:01:33.598Z,32.77
2022-12-04T21:04:02.010Z,37.70
2022-12-04T21:06:36.169Z,29.20
2022-12-04T21:09:06.524Z,30.23
2022-12-04T21:11:40.413Z,33.87
2022-12-04T21:14:30.095Z,29.43
2022-12-04T21:16:57.481Z,28.60
2022-12-04T21:19:24.357Z,31.90
2022-12-04T21:21:51.427Z,34.20
2022-12-04T21:24:20.730Z,33.00
2022-12-04T21:26:48.749Z,27.90
2022-12-04T21:29:16.110Z,27.73
2022-12-04T21:31:43.058Z,30.73
2022-12-04T21:34:11.848Z,31.20
2022-12-04T21:36:38.766Z,30.80
2022-12-04T21:39:05.737Z,22.40
2022-12-04T21:41:51.261Z,28.00
2022-12-04T21:44:20.448Z,32.27
2022-12-04T21:46:47.723Z,33.33
2022-12-04T21:49:15.503Z,31.37
2022-12-04T21:51:58.956Z,28.30
2022-12-04T21:54:30.167Z,31.47
2022-12-04T21:56:57.338Z,29.60
2022-12-04T21:59:25.572Z,25.23
2022-12-04T22:01:53.401Z,26.60
2022-12-04T22:04:21.087Z,34.00
2022-12-04T22:06:47.650Z,31.40
2022-12-04T22:09:14.468Z,35.97
2022-12-04T22:11:42.028Z,28.73
2022-12-04T22:14:10.386Z,32.67
2022-12-04T22:16:41.950Z,31.97
2022-12-04T22:19:09.097Z,29.40
2022-12-04T22:21:36.168Z,31.00
2022-12-04T22:24:03.629Z,28.50
2022-12-04T22:26:31.455Z,30.27
2022-12-04T22:28:58.372Z,33.30
2022-12-04T22:31:27.286Z,28.13
2022-12-04T22:33:56.049Z,32.40
2022-12-04T22:36:25.624Z,32.20
2022-12-04T22:41:39.701Z,36.90
2022-12-04T22:44:06.327Z,33.87
2022-12-04T22:46:33.863Z,37.67
2022-12-04T22:49:00.584Z,37.47
2022-12-04T22:51:27.879Z,29.97
2022-12-04T22:53:57.982Z,32.83
2022-12-04T22:56:31.367Z,36.30
2022-12-04T22:58:59.545Z,32.77
2022-12-04T23:01:31.540Z,28.93
2022-12-04T23:03:58.973Z,35.10
2022-12-04T23:06:29.874Z,33.80
2022-12-04T23:09:03.508Z,32.80
2022-12-04T23:11:30.799Z,35.17
2022-12-04T23:14:00.470Z,32.70
2022-12-04T23:16:29.979Z,33.70
2022-12-04T23:18:57.232Z,38.43
2022-12-04T23:21:24.815Z,30.10
2022-12-04T23:23:53.499Z,38.43
2022-12-04T23:26:26.230Z,36.90
2022-12-04T23:28:52.939Z,34.80
2022-12-04T23:31:20.054Z,34.70
2022-12-04T23:33:47.082Z,42.37
2022-12-04T23:36:14.441Z,21.30
2022-12-04T23:38:43.103Z,34.87
2022-12-04T23:41:27.442Z,34.37
2022-12-04T23:43:54.688Z,36.10
2022-12-04T23:46:24.912Z,31.60
2022-12-04T23:48:51.834Z,36.50
2022-12-04T23:51:20.049Z,34.50
2022-12-04T23:53:47.809Z,31.37
2022-12-04T23:56:21.519Z,36.60
2022-12-04T23:58:49.980Z,33.80
